GOOY Airport Information

Runway Information
Runway 03 Length 4866 ft width 98 ft
Elevation 63 ft Threshold ft Heading 23
Runway 21 Length 4866 ft Width 98 ft
Elevation 56 ft Threshold ft Heading 203
Runway 18 Length 11450 ft width 148 ft
Elevation 64 ft Threshold 525 ft Heading 173
Runway 36 Length 11450 ft Width 148 ft
Elevation 75 ft Threshold ft Heading 353
Airport Frequencies
Type APP Name DAKAR CON Frequency 120.5 MHZ
Type INFO Name DAKAR INFO Frequency 129.5 MHZ
Type INFO Name DAKAR INFO Frequency 345.2 MHZ
Type TWR Name DAKAR TWR Frequency 118.1 MHZ
Airport Navaids
Type NDB Name Dakar Frequency 323 KHZ
Type VOR-DME Name Dakar Frequency 113100 KHZ
Airport Weather Information & NOTAM
ADDS - METARS form results

(0806 UTC 27 June 2022)
Data provider http://aviationweather.gov/metar/data/
 
Forecast for: GOOY (DAKAR/YOFF , SN)
Text: TAF GOOY 270500Z 2706/2812 32008KT 9999 SCT013
Forecast period: 0600 UTC 27 June 2022 to 1200 UTC 28 June 2022
Forecast type: FROM: standard forecast or significant change
Winds: from the NW (320 degrees) at 9 MPH (8 knots; 4.1 m/s)
Visibility: 6 or more miles (10+ km)
Ceiling: at least 12,000 feet AGL
Clouds: scattered clouds at 1300 feet AGL
Weather: no significant weather forecast for this period